sensor_id;sensor_type;location;lat;lon;timestamp;P1;durP1;ratioP1;P2;durP2;ratioP2
75810;SDS011;64449;50.016;19.954;2023-11-21T00:01:01;7.00;;;3.20;;
75810;SDS011;64449;50.016;19.954;2023-11-21T00:03:29;6.30;;;2.80;;
75810;SDS011;64449;50.016;19.954;2023-11-21T00:05:55;6.50;;;2.90;;
75810;SDS011;64449;50.016;19.954;2023-11-21T00:08:21;5.70;;;3.00;;
75810;SDS011;64449;50.016;19.954;2023-11-21T00:10:46;5.10;;;2.60;;
75810;SDS011;64449;50.016;19.954;2023-11-21T00:13:11;4.70;;;2.70;;
75810;SDS011;64449;50.016;19.954;2023-11-21T00:15:37;5.80;;;2.80;;
75810;SDS011;64449;50.016;19.954;2023-11-21T00:18:03;5.80;;;2.60;;
75810;SDS011;64449;50.016;19.954;2023-11-21T00:20:28;5.00;;;2.80;;
75810;SDS011;64449;50.016;19.954;2023-11-21T00:22:54;5.10;;;2.40;;
75810;SDS011;64449;50.016;19.954;2023-11-21T00:25:19;5.80;;;2.60;;
75810;SDS011;64449;50.016;19.954;2023-11-21T00:27:45;5.00;;;2.60;;
75810;SDS011;64449;50.016;19.954;2023-11-21T00:30:10;6.80;;;2.50;;
75810;SDS011;64449;50.016;19.954;2023-11-21T00:32:36;4.10;;;2.70;;
75810;SDS011;64449;50.016;19.954;2023-11-21T00:35:03;5.60;;;2.30;;
75810;SDS011;64449;50.016;19.954;2023-11-21T00:37:28;4.40;;;2.50;;
75810;SDS011;64449;50.016;19.954;2023-11-21T00:39:54;5.40;;;3.30;;
75810;SDS011;64449;50.016;19.954;2023-11-21T00:42:19;5.20;;;3.20;;
75810;SDS011;64449;50.016;19.954;2023-11-21T00:44:46;4.80;;;2.70;;
75810;SDS011;64449;50.016;19.954;2023-11-21T00:47:12;5.10;;;2.80;;
75810;SDS011;64449;50.016;19.954;2023-11-21T00:49:37;6.30;;;2.60;;
75810;SDS011;64449;50.016;19.954;2023-11-21T00:52:04;5.80;;;3.60;;
75810;SDS011;64449;50.016;19.954;2023-11-21T00:54:30;5.10;;;3.00;;
75810;SDS011;64449;50.016;19.954;2023-11-21T00:56:55;6.00;;;3.00;;
75810;SDS011;64449;50.016;19.954;2023-11-21T00:59:21;5.50;;;3.10;;
75810;SDS011;64449;50.016;19.954;2023-11-21T01:01:48;5.80;;;2.60;;
75810;SDS011;64449;50.016;19.954;2023-11-21T01:04:13;5.20;;;3.00;;
75810;SDS011;64449;50.016;19.954;2023-11-21T01:06:38;6.90;;;3.60;;
75810;SDS011;64449;50.016;19.954;2023-11-21T01:09:04;6.10;;;3.40;;
75810;SDS011;64449;50.016;19.954;2023-11-21T01:11:35;6.20;;;3.20;;
75810;SDS011;64449;50.016;19.954;2023-11-21T01:14:02;4.70;;;3.20;;
75810;SDS011;64449;50.016;19.954;2023-11-21T01:16:29;6.30;;;2.90;;
75810;SDS011;64449;50.016;19.954;2023-11-21T01:18:54;6.20;;;3.40;;
75810;SDS011;64449;50.016;19.954;2023-11-21T01:21:20;6.90;;;3.30;;
75810;SDS011;64449;50.016;19.954;2023-11-21T01:23:46;5.10;;;3.30;;
75810;SDS011;64449;50.016;19.954;2023-11-21T01:26:12;5.90;;;3.00;;
75810;SDS011;64449;50.016;19.954;2023-11-21T01:28:38;6.00;;;3.20;;
75810;SDS011;64449;50.016;19.954;2023-11-21T01:31:03;6.40;;;3.40;;
75810;SDS011;64449;50.016;19.954;2023-11-21T01:33:29;6.20;;;3.30;;
75810;SDS011;64449;50.016;19.954;2023-11-21T01:35:54;5.00;;;2.90;;
75810;SDS011;64449;50.016;19.954;2023-11-21T01:38:21;6.10;;;2.70;;
75810;SDS011;64449;50.016;19.954;2023-11-21T01:40:47;6.70;;;3.70;;
75810;SDS011;64449;50.016;19.954;2023-11-21T01:43:12;10.10;;;3.50;;
75810;SDS011;64449;50.016;19.954;2023-11-21T01:45:38;5.50;;;3.70;;
75810;SDS011;64449;50.016;19.954;2023-11-21T01:48:04;7.70;;;3.00;;
75810;SDS011;64449;50.016;19.954;2023-11-21T01:50:31;5.10;;;3.00;;
75810;SDS011;64449;50.016;19.954;2023-11-21T01:52:58;6.90;;;3.60;;
75810;SDS011;64449;50.016;19.954;2023-11-21T01:55:25;5.00;;;3.00;;
75810;SDS011;64449;50.016;19.954;2023-11-21T01:57:52;6.80;;;3.10;;
75810;SDS011;64449;50.016;19.954;2023-11-21T02:00:18;5.50;;;3.10;;
75810;SDS011;64449;50.016;19.954;2023-11-21T02:02:47;6.30;;;2.70;;
75810;SDS011;64449;50.016;19.954;2023-11-21T02:05:17;5.50;;;3.10;;
75810;SDS011;64449;50.016;19.954;2023-11-21T02:07:43;6.20;;;2.80;;
75810;SDS011;64449;50.016;19.954;2023-11-21T02:10:10;5.10;;;2.30;;
75810;SDS011;64449;50.016;19.954;2023-11-21T02:12:39;5.10;;;2.70;;
75810;SDS011;64449;50.016;19.954;2023-11-21T02:15:08;8.10;;;3.10;;
75810;SDS011;64449;50.016;19.954;2023-11-21T02:17:41;7.00;;;3.40;;
75810;SDS011;64449;50.016;19.954;2023-11-21T02:20:10;4.90;;;2.70;;
75810;SDS011;64449;50.016;19.954;2023-11-21T02:22:40;6.50;;;3.20;;
75810;SDS011;64449;50.016;19.954;2023-11-21T02:25:07;6.60;;;2.50;;
75810;SDS011;64449;50.016;19.954;2023-11-21T02:27:33;5.50;;;3.10;;
75810;SDS011;64449;50.016;19.954;2023-11-21T02:29:58;6.10;;;2.80;;
75810;SDS011;64449;50.016;19.954;2023-11-21T02:32:25;7.70;;;3.50;;
75810;SDS011;64449;50.016;19.954;2023-11-21T02:34:51;6.80;;;3.30;;
75810;SDS011;64449;50.016;19.954;2023-11-21T02:37:17;7.60;;;3.20;;
75810;SDS011;64449;50.016;19.954;2023-11-21T02:39:42;5.70;;;3.50;;
75810;SDS011;64449;50.016;19.954;2023-11-21T02:42:08;5.20;;;2.90;;
75810;SDS011;64449;50.016;19.954;2023-11-21T02:44:33;5.30;;;2.90;;
75810;SDS011;64449;50.016;19.954;2023-11-21T02:46:59;6.90;;;2.80;;
75810;SDS011;64449;50.016;19.954;2023-11-21T02:49:25;5.10;;;2.70;;
75810;SDS011;64449;50.016;19.954;2023-11-21T02:51:53;4.90;;;3.20;;
75810;SDS011;64449;50.016;19.954;2023-11-21T02:54:20;5.50;;;3.30;;
75810;SDS011;64449;50.016;19.954;2023-11-21T02:56:47;5.40;;;3.50;;
75810;SDS011;64449;50.016;19.954;2023-11-21T02:59:14;5.40;;;2.80;;
75810;SDS011;64449;50.016;19.954;2023-11-21T03:01:40;6.20;;;2.90;;
75810;SDS011;64449;50.016;19.954;2023-11-21T03:04:06;8.00;;;3.30;;
75810;SDS011;64449;50.016;19.954;2023-11-21T03:06:32;5.60;;;2.70;;
75810;SDS011;64449;50.016;19.954;2023-11-21T03:08:57;6.90;;;3.50;;
75810;SDS011;64449;50.016;19.954;2023-11-21T03:11:22;5.70;;;2.80;;
75810;SDS011;64449;50.016;19.954;2023-11-21T03:13:48;6.80;;;3.20;;
75810;SDS011;64449;50.016;19.954;2023-11-21T03:16:14;4.30;;;2.50;;
75810;SDS011;64449;50.016;19.954;2023-11-21T03:18:41;5.90;;;2.70;;
75810;SDS011;64449;50.016;19.954;2023-11-21T03:21:06;5.10;;;2.70;;
75810;SDS011;64449;50.016;19.954;2023-11-21T03:23:35;5.30;;;2.60;;
75810;SDS011;64449;50.016;19.954;2023-11-21T03:26:01;5.10;;;2.30;;
75810;SDS011;64449;50.016;19.954;2023-11-21T03:28:27;4.50;;;2.90;;
75810;SDS011;64449;50.016;19.954;2023-11-21T03:30:53;5.80;;;2.90;;
75810;SDS011;64449;50.016;19.954;2023-11-21T03:33:19;4.70;;;2.20;;
75810;SDS011;64449;50.016;19.954;2023-11-21T03:35:45;5.20;;;2.40;;
75810;SDS011;64449;50.016;19.954;2023-11-21T03:38:11;4.50;;;2.50;;
75810;SDS011;64449;50.016;19.954;2023-11-21T03:40:37;8.00;;;2.40;;
75810;SDS011;64449;50.016;19.954;2023-11-21T03:43:05;6.10;;;2.70;;
75810;SDS011;64449;50.016;19.954;2023-11-21T03:45:31;6.30;;;2.50;;
75810;SDS011;64449;50.016;19.954;2023-11-21T03:47:57;4.90;;;3.00;;
75810;SDS011;64449;50.016;19.954;2023-11-21T03:50:22;5.70;;;2.60;;
75810;SDS011;64449;50.016;19.954;2023-11-21T03:52:48;4.50;;;3.00;;
75810;SDS011;64449;50.016;19.954;2023-11-21T03:55:13;4.40;;;2.50;;
75810;SDS011;64449;50.016;19.954;2023-11-21T03:57:40;5.60;;;2.50;;
75810;SDS011;64449;50.016;19.954;2023-11-21T04:00:06;9.40;;;4.40;;
75810;SDS011;64449;50.016;19.954;2023-11-21T04:02:34;5.30;;;2.80;;
75810;SDS011;64449;50.016;19.954;2023-11-21T04:05:00;7.30;;;2.80;;
75810;SDS011;64449;50.016;19.954;2023-11-21T04:07:25;5.30;;;2.50;;
75810;SDS011;64449;50.016;19.954;2023-11-21T04:09:50;7.00;;;2.40;;
75810;SDS011;64449;50.016;19.954;2023-11-21T04:12:16;6.00;;;2.30;;
75810;SDS011;64449;50.016;19.954;2023-11-21T04:14:41;5.60;;;2.80;;
75810;SDS011;64449;50.016;19.954;2023-11-21T04:17:07;5.80;;;2.80;;
75810;SDS011;64449;50.016;19.954;2023-11-21T04:19:32;5.30;;;2.70;;
75810;SDS011;64449;50.016;19.954;2023-11-21T04:21:57;6.90;;;2.50;;
75810;SDS011;64449;50.016;19.954;2023-11-21T04:24:23;5.30;;;3.00;;
75810;SDS011;64449;50.016;19.954;2023-11-21T04:26:48;7.20;;;3.20;;
75810;SDS011;64449;50.016;19.954;2023-11-21T04:29:14;4.30;;;2.60;;
75810;SDS011;64449;50.016;19.954;2023-11-21T04:31:39;5.30;;;2.50;;
75810;SDS011;64449;50.016;19.954;2023-11-21T04:34:05;6.90;;;3.40;;
75810;SDS011;64449;50.016;19.954;2023-11-21T04:36:30;5.80;;;2.80;;
75810;SDS011;64449;50.016;19.954;2023-11-21T04:38:56;5.30;;;2.90;;
75810;SDS011;64449;50.016;19.954;2023-11-21T04:41:22;5.90;;;3.00;;
75810;SDS011;64449;50.016;19.954;2023-11-21T04:43:47;7.60;;;3.10;;
75810;SDS011;64449;50.016;19.954;2023-11-21T04:46:12;5.80;;;3.00;;
75810;SDS011;64449;50.016;19.954;2023-11-21T04:48:38;5.40;;;2.60;;
75810;SDS011;64449;50.016;19.954;2023-11-21T04:51:03;7.10;;;3.20;;
75810;SDS011;64449;50.016;19.954;2023-11-21T04:53:29;5.10;;;2.90;;
75810;SDS011;64449;50.016;19.954;2023-11-21T04:55:55;6.10;;;2.70;;
75810;SDS011;64449;50.016;19.954;2023-11-21T04:58:20;5.20;;;2.80;;
75810;SDS011;64449;50.016;19.954;2023-11-21T05:00:46;6.80;;;3.00;;
75810;SDS011;64449;50.016;19.954;2023-11-21T05:03:11;5.30;;;3.30;;
75810;SDS011;64449;50.016;19.954;2023-11-21T05:05:37;8.50;;;3.70;;
75810;SDS011;64449;50.016;19.954;2023-11-21T05:08:02;6.00;;;2.80;;
75810;SDS011;64449;50.016;19.954;2023-11-21T05:10:28;8.00;;;3.00;;
75810;SDS011;64449;50.016;19.954;2023-11-21T05:12:55;6.10;;;2.80;;
75810;SDS011;64449;50.016;19.954;2023-11-21T05:15:20;6.70;;;3.50;;
75810;SDS011;64449;50.016;19.954;2023-11-21T05:17:46;10.10;;;4.60;;
75810;SDS011;64449;50.016;19.954;2023-11-21T05:20:15;8.10;;;3.60;;
75810;SDS011;64449;50.016;19.954;2023-11-21T05:22:45;6.00;;;3.30;;
75810;SDS011;64449;50.016;19.954;2023-11-21T05:25:11;7.90;;;3.70;;
75810;SDS011;64449;50.016;19.954;2023-11-21T05:27:37;6.90;;;3.60;;
75810;SDS011;64449;50.016;19.954;2023-11-21T05:30:03;7.10;;;3.40;;
75810;SDS011;64449;50.016;19.954;2023-11-21T05:32:37;7.40;;;3.50;;
75810;SDS011;64449;50.016;19.954;2023-11-21T05:35:02;9.20;;;3.50;;
75810;SDS011;64449;50.016;19.954;2023-11-21T05:37:28;6.80;;;3.70;;
75810;SDS011;64449;50.016;19.954;2023-11-21T05:39:53;6.70;;;3.40;;
75810;SDS011;64449;50.016;19.954;2023-11-21T05:42:22;8.10;;;3.60;;
75810;SDS011;64449;50.016;19.954;2023-11-21T05:44:48;7.90;;;3.60;;
75810;SDS011;64449;50.016;19.954;2023-11-21T05:47:13;7.90;;;4.00;;
75810;SDS011;64449;50.016;19.954;2023-11-21T05:49:39;7.10;;;4.00;;
75810;SDS011;64449;50.016;19.954;2023-11-21T05:52:04;6.60;;;3.90;;
75810;SDS011;64449;50.016;19.954;2023-11-21T05:54:31;8.60;;;3.60;;
75810;SDS011;64449;50.016;19.954;2023-11-21T05:56:57;6.10;;;3.80;;
75810;SDS011;64449;50.016;19.954;2023-11-21T05:59:22;5.60;;;3.90;;
75810;SDS011;64449;50.016;19.954;2023-11-21T06:01:48;7.30;;;4.30;;
75810;SDS011;64449;50.016;19.954;2023-11-21T06:04:13;8.00;;;3.90;;
75810;SDS011;64449;50.016;19.954;2023-11-21T06:06:39;7.40;;;3.60;;
75810;SDS011;64449;50.016;19.954;2023-11-21T06:09:05;8.50;;;5.00;;
75810;SDS011;64449;50.016;19.954;2023-11-21T06:11:37;8.00;;;4.20;;
75810;SDS011;64449;50.016;19.954;2023-11-21T06:14:02;8.70;;;4.20;;
75810;SDS011;64449;50.016;19.954;2023-11-21T06:16:28;8.40;;;4.30;;
75810;SDS011;64449;50.016;19.954;2023-11-21T06:18:54;7.10;;;3.70;;
75810;SDS011;64449;50.016;19.954;2023-11-21T06:21:19;10.90;;;4.90;;
75810;SDS011;64449;50.016;19.954;2023-11-21T06:23:44;8.00;;;3.80;;
75810;SDS011;64449;50.016;19.954;2023-11-21T06:26:10;8.30;;;4.20;;
75810;SDS011;64449;50.016;19.954;2023-11-21T06:28:35;8.10;;;4.10;;
75810;SDS011;64449;50.016;19.954;2023-11-21T06:31:01;8.10;;;4.40;;
75810;SDS011;64449;50.016;19.954;2023-11-21T06:33:34;11.50;;;5.10;;
75810;SDS011;64449;50.016;19.954;2023-11-21T06:36:00;9.70;;;4.80;;
75810;SDS011;64449;50.016;19.954;2023-11-21T06:38:28;14.80;;;5.20;;
75810;SDS011;64449;50.016;19.954;2023-11-21T06:40:55;8.70;;;3.90;;
75810;SDS011;64449;50.016;19.954;2023-11-21T06:43:22;8.20;;;4.40;;
75810;SDS011;64449;50.016;19.954;2023-11-21T06:45:47;9.10;;;5.10;;
75810;SDS011;64449;50.016;19.954;2023-11-21T06:48:13;10.50;;;4.70;;
75810;SDS011;64449;50.016;19.954;2023-11-21T06:50:38;9.80;;;4.20;;
75810;SDS011;64449;50.016;19.954;2023-11-21T06:53:03;7.60;;;4.00;;
75810;SDS011;64449;50.016;19.954;2023-11-21T06:55:32;9.00;;;4.90;;
75810;SDS011;64449;50.016;19.954;2023-11-21T06:57:57;9.00;;;4.60;;
75810;SDS011;64449;50.016;19.954;2023-11-21T07:00:23;7.80;;;4.20;;
75810;SDS011;64449;50.016;19.954;2023-11-21T07:02:49;9.90;;;5.30;;
75810;SDS011;64449;50.016;19.954;2023-11-21T07:05:14;9.40;;;4.90;;
75810;SDS011;64449;50.016;19.954;2023-11-21T07:07:40;7.80;;;4.70;;
75810;SDS011;64449;50.016;19.954;2023-11-21T07:10:06;9.30;;;4.70;;
75810;SDS011;64449;50.016;19.954;2023-11-21T07:12:33;9.10;;;5.30;;
75810;SDS011;64449;50.016;19.954;2023-11-21T07:14:59;8.50;;;4.60;;
75810;SDS011;64449;50.016;19.954;2023-11-21T07:17:25;6.20;;;3.60;;
75810;SDS011;64449;50.016;19.954;2023-11-21T07:19:50;7.00;;;4.40;;
75810;SDS011;64449;50.016;19.954;2023-11-21T07:22:16;7.80;;;4.10;;
75810;SDS011;64449;50.016;19.954;2023-11-21T07:24:48;9.80;;;5.40;;
75810;SDS011;64449;50.016;19.954;2023-11-21T07:27:17;9.60;;;5.50;;
75810;SDS011;64449;50.016;19.954;2023-11-21T07:29:43;9.70;;;4.60;;
75810;SDS011;64449;50.016;19.954;2023-11-21T07:32:09;9.20;;;5.10;;
75810;SDS011;64449;50.016;19.954;2023-11-21T07:34:34;10.10;;;5.30;;
75810;SDS011;64449;50.016;19.954;2023-11-21T07:37:01;8.20;;;4.90;;
75810;SDS011;64449;50.016;19.954;2023-11-21T07:39:27;8.50;;;4.90;;
75810;SDS011;64449;50.016;19.954;2023-11-21T07:41:53;9.80;;;4.70;;
75810;SDS011;64449;50.016;19.954;2023-11-21T07:44:19;10.50;;;5.40;;
75810;SDS011;64449;50.016;19.954;2023-11-21T07:46:45;8.00;;;6.00;;
75810;SDS011;64449;50.016;19.954;2023-11-21T07:49:11;7.40;;;4.60;;
75810;SDS011;64449;50.016;19.954;2023-11-21T07:51:40;10.50;;;4.90;;
75810;SDS011;64449;50.016;19.954;2023-11-21T07:54:06;8.10;;;4.50;;
75810;SDS011;64449;50.016;19.954;2023-11-21T07:56:32;9.00;;;4.50;;
75810;SDS011;64449;50.016;19.954;2023-11-21T07:58:57;8.40;;;5.00;;
75810;SDS011;64449;50.016;19.954;2023-11-21T08:01:22;7.70;;;4.70;;
75810;SDS011;64449;50.016;19.954;2023-11-21T08:03:48;12.10;;;6.40;;
75810;SDS011;64449;50.016;19.954;2023-11-21T08:06:16;9.40;;;5.80;;
75810;SDS011;64449;50.016;19.954;2023-11-21T08:08:42;10.50;;;5.80;;
75810;SDS011;64449;50.016;19.954;2023-11-21T08:11:08;9.40;;;5.30;;
75810;SDS011;64449;50.016;19.954;2023-11-21T08:13:35;10.20;;;5.50;;
75810;SDS011;64449;50.016;19.954;2023-11-21T08:16:00;12.00;;;6.30;;
75810;SDS011;64449;50.016;19.954;2023-11-21T08:18:30;12.20;;;6.80;;
75810;SDS011;64449;50.016;19.954;2023-11-21T08:20:55;11.90;;;7.70;;
75810;SDS011;64449;50.016;19.954;2023-11-21T08:23:21;10.70;;;6.60;;
75810;SDS011;64449;50.016;19.954;2023-11-21T08:25:50;14.00;;;6.80;;
75810;SDS011;64449;50.016;19.954;2023-11-21T08:28:17;11.70;;;6.20;;
75810;SDS011;64449;50.016;19.954;2023-11-21T08:30:42;11.80;;;6.80;;
75810;SDS011;64449;50.016;19.954;2023-11-21T08:33:09;12.20;;;6.20;;
75810;SDS011;64449;50.016;19.954;2023-11-21T08:35:34;9.70;;;7.00;;
75810;SDS011;64449;50.016;19.954;2023-11-21T08:38:01;9.70;;;5.90;;
75810;SDS011;64449;50.016;19.954;2023-11-21T08:40:27;9.80;;;5.60;;
75810;SDS011;64449;50.016;19.954;2023-11-21T08:42:53;11.40;;;5.90;;
75810;SDS011;64449;50.016;19.954;2023-11-21T08:45:20;11.60;;;6.20;;
75810;SDS011;64449;50.016;19.954;2023-11-21T08:47:47;13.90;;;6.10;;
75810;SDS011;64449;50.016;19.954;2023-11-21T08:50:13;11.20;;;5.90;;
75810;SDS011;64449;50.016;19.954;2023-11-21T08:52:40;11.90;;;6.30;;
75810;SDS011;64449;50.016;19.954;2023-11-21T08:55:06;11.00;;;5.60;;
75810;SDS011;64449;50.016;19.954;2023-11-21T08:57:37;11.70;;;5.30;;
75810;SDS011;64449;50.016;19.954;2023-11-21T09:00:04;9.30;;;5.60;;
75810;SDS011;64449;50.016;19.954;2023-11-21T09:02:38;10.10;;;6.10;;
75810;SDS011;64449;50.016;19.954;2023-11-21T09:05:07;12.50;;;6.20;;
75810;SDS011;64449;50.016;19.954;2023-11-21T09:07:34;11.50;;;6.70;;
75810;SDS011;64449;50.016;19.954;2023-11-21T09:10:01;10.50;;;6.30;;
75810;SDS011;64449;50.016;19.954;2023-11-21T09:12:28;10.60;;;5.80;;
75810;SDS011;64449;50.016;19.954;2023-11-21T09:14:53;11.60;;;6.40;;
75810;SDS011;64449;50.016;19.954;2023-11-21T09:17:19;12.10;;;5.70;;
75810;SDS011;64449;50.016;19.954;2023-11-21T09:19:44;11.90;;;6.70;;
75810;SDS011;64449;50.016;19.954;2023-11-21T09:22:14;11.50;;;6.50;;
75810;SDS011;64449;50.016;19.954;2023-11-21T09:24:41;11.30;;;5.70;;
75810;SDS011;64449;50.016;19.954;2023-11-21T09:27:07;11.70;;;6.10;;
75810;SDS011;64449;50.016;19.954;2023-11-21T09:29:33;12.10;;;6.90;;
75810;SDS011;64449;50.016;19.954;2023-11-21T09:31:58;12.90;;;6.50;;
75810;SDS011;64449;50.016;19.954;2023-11-21T09:34:27;10.10;;;5.90;;
75810;SDS011;64449;50.016;19.954;2023-11-21T09:36:52;14.00;;;7.40;;
75810;SDS011;64449;50.016;19.954;2023-11-21T09:39:19;12.50;;;7.30;;
75810;SDS011;64449;50.016;19.954;2023-11-21T09:41:46;10.70;;;6.50;;
75810;SDS011;64449;50.016;19.954;2023-11-21T09:46:43;10.90;;;6.30;;
75810;SDS011;64449;50.016;19.954;2023-11-21T09:49:11;11.30;;;6.70;;
75810;SDS011;64449;50.016;19.954;2023-11-21T09:51:39;11.60;;;6.70;;
75810;SDS011;64449;50.016;19.954;2023-11-21T09:54:08;11.90;;;6.90;;
75810;SDS011;64449;50.016;19.954;2023-11-21T09:56:36;11.30;;;6.40;;
75810;SDS011;64449;50.016;19.954;2023-11-21T09:59:03;12.40;;;6.80;;
75810;SDS011;64449;50.016;19.954;2023-11-21T10:01:32;11.60;;;6.60;;
75810;SDS011;64449;50.016;19.954;2023-11-21T10:03:58;14.50;;;7.00;;
75810;SDS011;64449;50.016;19.954;2023-11-21T10:06:24;13.70;;;6.60;;
75810;SDS011;64449;50.016;19.954;2023-11-21T10:08:52;12.80;;;7.40;;
75810;SDS011;64449;50.016;19.954;2023-11-21T10:11:18;12.50;;;6.20;;
75810;SDS011;64449;50.016;19.954;2023-11-21T10:13:46;11.00;;;5.80;;
75810;SDS011;64449;50.016;19.954;2023-11-21T10:16:15;12.10;;;6.40;;
75810;SDS011;64449;50.016;19.954;2023-11-21T10:18:46;12.90;;;6.80;;
75810;SDS011;64449;50.016;19.954;2023-11-21T10:23:43;11.50;;;5.90;;
75810;SDS011;64449;50.016;19.954;2023-11-21T10:26:10;9.20;;;5.30;;
75810;SDS011;64449;50.016;19.954;2023-11-21T10:28:41;11.00;;;5.20;;
75810;SDS011;64449;50.016;19.954;2023-11-21T10:31:21;9.90;;;5.80;;
75810;SDS011;64449;50.016;19.954;2023-11-21T10:33:49;9.20;;;5.10;;
75810;SDS011;64449;50.016;19.954;2023-11-21T10:36:28;10.50;;;5.70;;
75810;SDS011;64449;50.016;19.954;2023-11-21T10:38:54;9.40;;;5.00;;
75810;SDS011;64449;50.016;19.954;2023-11-21T10:41:22;9.00;;;4.60;;
75810;SDS011;64449;50.016;19.954;2023-11-21T10:43:48;10.00;;;4.60;;
75810;SDS011;64449;50.016;19.954;2023-11-21T10:46:14;8.60;;;5.30;;
75810;SDS011;64449;50.016;19.954;2023-11-21T10:48:41;9.30;;;4.40;;
75810;SDS011;64449;50.016;19.954;2023-11-21T10:51:07;9.30;;;4.80;;
75810;SDS011;64449;50.016;19.954;2023-11-21T10:53:38;7.10;;;4.70;;
75810;SDS011;64449;50.016;19.954;2023-11-21T10:56:08;7.10;;;4.20;;
75810;SDS011;64449;50.016;19.954;2023-11-21T10:58:42;10.40;;;5.30;;
75810;SDS011;64449;50.016;19.954;2023-11-21T11:01:08;9.30;;;4.50;;
75810;SDS011;64449;50.016;19.954;2023-11-21T11:03:37;9.90;;;4.80;;
75810;SDS011;64449;50.016;19.954;2023-11-21T11:06:04;11.20;;;5.80;;
75810;SDS011;64449;50.016;19.954;2023-11-21T11:08:32;8.00;;;4.70;;
75810;SDS011;64449;50.016;19.954;2023-11-21T11:10:59;10.60;;;5.70;;
75810;SDS011;64449;50.016;19.954;2023-11-21T11:13:25;10.00;;;5.30;;
75810;SDS011;64449;50.016;19.954;2023-11-21T11:15:50;9.90;;;4.50;;
75810;SDS011;64449;50.016;19.954;2023-11-21T11:18:21;8.30;;;3.90;;
75810;SDS011;64449;50.016;19.954;2023-11-21T11:20:48;11.50;;;5.30;;
75810;SDS011;64449;50.016;19.954;2023-11-21T11:28:51;8.90;;;4.40;;
75810;SDS011;64449;50.016;19.954;2023-11-21T11:34:30;8.70;;;5.20;;
75810;SDS011;64449;50.016;19.954;2023-11-21T11:37:06;9.00;;;4.90;;
75810;SDS011;64449;50.016;19.954;2023-11-21T11:39:37;9.90;;;5.80;;
75810;SDS011;64449;50.016;19.954;2023-11-21T11:42:08;8.50;;;4.80;;
75810;SDS011;64449;50.016;19.954;2023-11-21T11:47:14;8.70;;;5.30;;
75810;SDS011;64449;50.016;19.954;2023-11-21T11:49:56;9.10;;;4.00;;
75810;SDS011;64449;50.016;19.954;2023-11-21T11:55:02;9.40;;;4.90;;
75810;SDS011;64449;50.016;19.954;2023-11-21T11:57:30;11.10;;;4.30;;
75810;SDS011;64449;50.016;19.954;2023-11-21T12:02:46;6.80;;;3.50;;
75810;SDS011;64449;50.016;19.954;2023-11-21T12:05:16;7.10;;;3.80;;
75810;SDS011;64449;50.016;19.954;2023-11-21T12:07:50;6.90;;;3.50;;
75810;SDS011;64449;50.016;19.954;2023-11-21T12:10:20;9.80;;;4.00;;
75810;SDS011;64449;50.016;19.954;2023-11-21T12:12:50;7.70;;;3.20;;
75810;SDS011;64449;50.016;19.954;2023-11-21T12:17:46;6.00;;;2.90;;
75810;SDS011;64449;50.016;19.954;2023-11-21T12:20:15;5.80;;;2.60;;
75810;SDS011;64449;50.016;19.954;2023-11-21T12:22:47;6.90;;;3.30;;
75810;SDS011;64449;50.016;19.954;2023-11-21T12:25:17;5.70;;;2.70;;
75810;SDS011;64449;50.016;19.954;2023-11-21T12:27:45;5.40;;;2.80;;
75810;SDS011;64449;50.016;19.954;2023-11-21T12:30:11;6.30;;;3.40;;
75810;SDS011;64449;50.016;19.954;2023-11-21T12:32:42;5.40;;;3.00;;
75810;SDS011;64449;50.016;19.954;2023-11-21T12:35:13;7.50;;;3.70;;
75810;SDS011;64449;50.016;19.954;2023-11-21T12:37:40;7.20;;;3.30;;
75810;SDS011;64449;50.016;19.954;2023-11-21T12:40:08;8.20;;;4.10;;
75810;SDS011;64449;50.016;19.954;2023-11-21T12:42:39;7.40;;;3.40;;
75810;SDS011;64449;50.016;19.954;2023-11-21T12:45:18;7.20;;;3.70;;
75810;SDS011;64449;50.016;19.954;2023-11-21T12:47:54;6.60;;;3.30;;
75810;SDS011;64449;50.016;19.954;2023-11-21T12:50:25;8.30;;;4.40;;
75810;SDS011;64449;50.016;19.954;2023-11-21T12:52:54;8.50;;;4.30;;
75810;SDS011;64449;50.016;19.954;2023-11-21T12:55:24;6.60;;;4.20;;
75810;SDS011;64449;50.016;19.954;2023-11-21T12:57:54;7.70;;;3.60;;
75810;SDS011;64449;50.016;19.954;2023-11-21T13:00:34;9.00;;;4.70;;
75810;SDS011;64449;50.016;19.954;2023-11-21T13:03:07;7.90;;;4.00;;
75810;SDS011;64449;50.016;19.954;2023-11-21T13:05:37;8.70;;;4.40;;
75810;SDS011;64449;50.016;19.954;2023-11-21T13:08:05;9.60;;;4.40;;
75810;SDS011;64449;50.016;19.954;2023-11-21T13:10:37;9.30;;;4.70;;
75810;SDS011;64449;50.016;19.954;2023-11-21T13:13:09;8.60;;;4.70;;
75810;SDS011;64449;50.016;19.954;2023-11-21T13:15:46;8.50;;;4.40;;
75810;SDS011;64449;50.016;19.954;2023-11-21T13:18:17;10.40;;;4.40;;
75810;SDS011;64449;50.016;19.954;2023-11-21T13:20:43;7.80;;;4.40;;
75810;SDS011;64449;50.016;19.954;2023-11-21T13:23:11;8.90;;;4.80;;
75810;SDS011;64449;50.016;19.954;2023-11-21T13:25:41;10.70;;;4.50;;
75810;SDS011;64449;50.016;19.954;2023-11-21T13:28:10;6.10;;;4.10;;
75810;SDS011;64449;50.016;19.954;2023-11-21T13:30:36;8.40;;;4.90;;
75810;SDS011;64449;50.016;19.954;2023-11-21T13:33:05;9.00;;;4.80;;
75810;SDS011;64449;50.016;19.954;2023-11-21T13:35:33;8.90;;;4.30;;
75810;SDS011;64449;50.016;19.954;2023-11-21T13:38:10;9.10;;;5.20;;
75810;SDS011;64449;50.016;19.954;2023-11-21T13:40:37;10.90;;;4.60;;
75810;SDS011;64449;50.016;19.954;2023-11-21T13:43:12;8.80;;;4.60;;
75810;SDS011;64449;50.016;19.954;2023-11-21T13:45:42;7.90;;;4.50;;
75810;SDS011;64449;50.016;19.954;2023-11-21T13:48:09;7.20;;;4.30;;
75810;SDS011;64449;50.016;19.954;2023-11-21T13:50:42;7.70;;;4.90;;
75810;SDS011;64449;50.016;19.954;2023-11-21T13:53:20;8.40;;;5.10;;
75810;SDS011;64449;50.016;19.954;2023-11-21T13:55:52;9.80;;;5.50;;
75810;SDS011;64449;50.016;19.954;2023-11-21T13:58:25;10.80;;;4.90;;
75810;SDS011;64449;50.016;19.954;2023-11-21T14:01:09;7.50;;;4.70;;
75810;SDS011;64449;50.016;19.954;2023-11-21T14:03:58;9.10;;;5.10;;
75810;SDS011;64449;50.016;19.954;2023-11-21T14:06:46;8.90;;;4.70;;
75810;SDS011;64449;50.016;19.954;2023-11-21T14:09:15;7.90;;;4.40;;
75810;SDS011;64449;50.016;19.954;2023-11-21T14:11:48;12.30;;;5.00;;
75810;SDS011;64449;50.016;19.954;2023-11-21T14:14:15;9.60;;;5.00;;
75810;SDS011;64449;50.016;19.954;2023-11-21T14:16:42;9.20;;;5.50;;
75810;SDS011;64449;50.016;19.954;2023-11-21T14:19:08;8.20;;;5.10;;
75810;SDS011;64449;50.016;19.954;2023-11-21T14:21:41;8.80;;;5.10;;
75810;SDS011;64449;50.016;19.954;2023-11-21T14:24:10;11.50;;;6.10;;
75810;SDS011;64449;50.016;19.954;2023-11-21T14:26:40;10.00;;;5.90;;
75810;SDS011;64449;50.016;19.954;2023-11-21T14:29:07;11.50;;;5.80;;
75810;SDS011;64449;50.016;19.954;2023-11-21T14:31:34;9.50;;;5.60;;
75810;SDS011;64449;50.016;19.954;2023-11-21T14:34:01;10.30;;;5.90;;
75810;SDS011;64449;50.016;19.954;2023-11-21T14:36:27;10.10;;;6.30;;
75810;SDS011;64449;50.016;19.954;2023-11-21T14:38:53;10.60;;;6.80;;
75810;SDS011;64449;50.016;19.954;2023-11-21T14:41:19;8.90;;;5.80;;
75810;SDS011;64449;50.016;19.954;2023-11-21T14:43:44;8.50;;;5.50;;
75810;SDS011;64449;50.016;19.954;2023-11-21T14:46:12;9.80;;;6.70;;
75810;SDS011;64449;50.016;19.954;2023-11-21T14:48:41;13.30;;;7.60;;
75810;SDS011;64449;50.016;19.954;2023-11-21T14:51:13;10.00;;;6.20;;
75810;SDS011;64449;50.016;19.954;2023-11-21T14:54:01;11.30;;;6.40;;
75810;SDS011;64449;50.016;19.954;2023-11-21T14:56:34;12.30;;;6.40;;